createdAt,value
2018-02-08T00:00:05.050Z,1019.21
2018-02-08T00:05:03.278Z,1019.18
2018-02-08T00:10:02.807Z,1019.14
2018-02-08T00:15:03.169Z,1019.18
2018-02-08T00:20:03.627Z,1019.14
2018-02-08T00:25:03.153Z,1019.22
2018-02-08T00:30:03.580Z,1019.24
2018-02-08T00:35:03.021Z,1019.23
2018-02-08T00:40:03.525Z,1019.28
2018-02-08T00:45:02.896Z,1019.26
2018-02-08T00:50:02.801Z,1019.34
2018-02-08T00:55:03.295Z,1019.36
2018-02-08T01:00:02.728Z,1019.43
2018-02-08T01:05:03.192Z,1019.33
2018-02-08T01:10:02.705Z,1019.35
2018-02-08T01:15:03.104Z,1019.35
2018-02-08T01:20:03.568Z,1019.43
2018-02-08T01:25:03.167Z,1019.39
2018-02-08T01:30:03.508Z,1019.34
2018-02-08T01:35:02.964Z,1019.37
2018-02-08T01:40:03.451Z,1019.36
2018-02-08T01:45:02.934Z,1019.42
2018-02-08T01:50:03.420Z,1019.46
2018-02-08T01:55:02.837Z,1019.41
2018-02-08T02:00:03.325Z,1019.37
2018-02-08T02:05:02.789Z,1019.35
2018-02-08T02:10:03.330Z,1019.38
2018-02-08T02:15:02.806Z,1019.33
2018-02-08T02:20:03.291Z,1019.31
2018-02-08T02:25:02.697Z,1019.37
2018-02-08T02:30:03.229Z,1019.31
2018-02-08T02:35:02.723Z,1019.27
2018-02-08T02:40:03.244Z,1019.29
2018-02-08T02:45:02.711Z,1019.24
2018-02-08T02:50:03.442Z,1019.31
2018-02-08T02:55:02.918Z,1019.35
2018-02-08T03:00:03.342Z,1019.46
2018-02-08T03:05:02.790Z,1019.39
2018-02-08T03:10:03.376Z,1019.36
2018-02-08T03:15:02.824Z,1019.25
2018-02-08T03:20:03.263Z,1019.25
2018-02-08T03:25:02.704Z,1019.33
2018-02-08T03:30:03.250Z,1019.31
2018-02-08T03:35:03.002Z,1019.28
2018-02-08T03:40:03.569Z,1019.28
2018-02-08T03:45:03.118Z,1019.26
2018-02-08T03:50:03.619Z,1019.28
2018-02-08T03:55:03.191Z,1019.3
2018-02-08T04:00:02.694Z,1019.3
2018-02-08T04:05:03.220Z,1019.25
2018-02-08T04:10:02.894Z,1019.21
2018-02-08T04:15:03.545Z,1019.21
2018-02-08T04:20:03.022Z,1019.19
2018-02-08T04:25:03.543Z,1019.17
2018-02-08T04:30:03.057Z,1019.23
2018-02-08T04:35:03.531Z,1019.25
2018-02-08T04:40:03.094Z,1019.35
2018-02-08T04:45:03.575Z,1019.31
2018-02-08T04:50:03.074Z,1019.32
2018-02-08T04:55:03.521Z,1019.36
2018-02-08T05:00:03.053Z,1019.35
2018-02-08T05:05:03.449Z,1019.46
2018-02-08T05:10:03.092Z,1019.43
2018-02-08T05:15:03.634Z,1019.51
2018-02-08T05:20:03.036Z,1019.43
2018-02-08T05:25:03.422Z,1019.54
2018-02-08T05:30:03.581Z,1019.51
2018-02-08T05:35:03.000Z,1019.48
2018-02-08T05:40:03.533Z,1019.51
2018-02-08T05:45:02.977Z,1019.57
2018-02-08T05:50:03.441Z,1019.56
2018-02-08T05:55:02.844Z,1019.65
2018-02-08T06:00:03.258Z,1019.66
2018-02-08T06:05:02.705Z,1019.7
2018-02-08T06:10:03.118Z,1019.69
2018-02-08T06:15:03.564Z,1019.68
2018-02-08T06:20:03.016Z,1019.67
2018-02-08T06:25:03.470Z,1019.69
2018-02-08T06:30:02.891Z,1019.72
2018-02-08T06:35:03.344Z,1019.72
2018-02-08T06:40:02.882Z,1019.85
2018-02-08T06:45:03.257Z,1019.85
2018-02-08T06:50:03.767Z,1019.88
2018-02-08T06:55:03.221Z,1019.91
2018-02-08T07:00:02.681Z,1019.89
2018-02-08T07:05:03.105Z,1019.88
2018-02-08T07:10:03.627Z,1019.88
2018-02-08T07:15:03.095Z,1019.95
2018-02-08T07:20:03.664Z,1019.96
2018-02-08T07:25:03.109Z,1020.1
2018-02-08T07:30:03.556Z,1020.16
2018-02-08T07:35:03.003Z,1020.15
2018-02-08T07:40:03.437Z,1020.14
2018-02-08T07:45:02.928Z,1020.16
2018-02-08T07:50:03.376Z,1020.29
2018-02-08T07:55:02.874Z,1020.36
2018-02-08T08:00:03.341Z,1020.24
2018-02-08T08:05:02.751Z,1020.23
2018-02-08T08:10:03.283Z,1020.22
2018-02-08T08:15:02.735Z,1020.24
2018-02-08T08:20:03.302Z,1020.36
2018-02-08T08:25:02.761Z,1020.3
2018-02-08T08:30:03.475Z,1020.49
2018-02-08T08:35:02.946Z,1020.39
2018-02-08T08:40:03.418Z,1020.49
2018-02-08T08:45:02.858Z,1020.47
2018-02-08T08:50:03.270Z,1020.48
2018-02-08T08:55:02.708Z,1020.51
2018-02-08T09:00:03.281Z,1020.56
2018-02-08T09:05:02.820Z,1020.56
2018-02-08T09:10:03.388Z,1020.48
2018-02-08T09:15:02.774Z,1020.43
2018-02-08T09:20:03.271Z,1020.48
2018-02-08T09:25:02.726Z,1020.54
2018-02-08T09:30:03.158Z,1020.42
2018-02-08T09:35:03.609Z,1020.44
2018-02-08T09:40:03.172Z,1020.42
2018-02-08T09:45:02.728Z,1020.44
2018-02-08T09:50:03.255Z,1020.49
2018-02-08T09:55:02.692Z,1020.47
2018-02-08T10:00:03.163Z,1020.42
2018-02-08T10:05:03.652Z,1020.56
2018-02-08T10:10:03.143Z,1020.58
2018-02-08T10:15:03.661Z,1020.47
2018-02-08T10:20:03.204Z,1020.55
2018-02-08T10:25:02.700Z,1020.5
2018-02-08T10:30:03.094Z,1020.49
2018-02-08T10:35:03.660Z,1020.49
2018-02-08T10:40:03.184Z,1020.53
2018-02-08T10:45:03.691Z,1020.51
2018-02-08T10:50:03.489Z,1020.53
2018-02-08T10:55:03.099Z,1020.49
2018-02-08T11:00:03.519Z,1020.56
2018-02-08T11:05:03.026Z,1020.48
2018-02-08T11:10:03.542Z,1020.51
2018-02-08T11:15:03.077Z,1020.42
2018-02-08T11:20:03.629Z,1020.41
2018-02-08T11:25:03.085Z,1020.46
2018-02-08T11:30:03.576Z,1020.44
2018-02-08T11:35:02.940Z,1020.38
2018-02-08T11:40:03.358Z,1020.31
2018-02-08T11:45:02.849Z,1020.32
2018-02-08T11:50:03.421Z,1020.25
2018-02-08T11:55:02.877Z,1020.24
2018-02-08T12:00:03.314Z,1020.24
2018-02-08T12:05:02.800Z,1020.16
2018-02-08T12:10:03.341Z,1020.23
2018-02-08T12:15:02.790Z,1020.05
2018-02-08T12:20:03.328Z,1020.08
2018-02-08T12:25:02.807Z,1020.05
2018-02-08T12:30:03.270Z,1020.13
2018-02-08T12:35:02.755Z,1020.04
2018-02-08T12:40:03.340Z,1020.01
2018-02-08T12:45:02.826Z,1020
2018-02-08T12:50:03.383Z,1020.05
2018-02-08T12:55:02.881Z,1020.03
2018-02-08T13:00:03.363Z,1019.91
2018-02-08T13:05:02.764Z,1019.8
2018-02-08T13:10:03.280Z,1019.8
2018-02-08T13:15:03.812Z,1019.75
2018-02-08T13:20:03.429Z,1019.72
2018-02-08T13:25:02.819Z,1019.66
2018-02-08T13:30:03.386Z,1019.55
2018-02-08T13:35:02.949Z,1019.45
2018-02-08T13:40:03.436Z,1019.39
2018-02-08T13:45:02.867Z,1019.32
2018-02-08T13:50:03.341Z,1019.31
2018-02-08T13:55:02.814Z,1019.27
2018-02-08T14:00:03.466Z,1019.12
2018-02-08T14:05:03.062Z,1019.19
2018-02-08T14:10:03.559Z,1019.18
2018-02-08T14:15:03.037Z,1019.13
2018-02-08T14:20:02.691Z,1019.1
2018-02-08T14:25:03.230Z,1019.04
2018-02-08T14:30:02.717Z,1018.99
2018-02-08T14:35:03.145Z,1018.99
2018-02-08T14:40:02.657Z,1018.9
2018-02-08T14:45:03.162Z,1018.83
2018-02-08T14:50:03.559Z,1018.76
2018-02-08T14:55:03.031Z,1018.79
2018-02-08T15:00:03.609Z,1018.71
2018-02-08T15:05:03.669Z,1018.65
2018-02-08T15:10:03.344Z,1018.67
2018-02-08T15:15:02.862Z,1018.67
2018-02-08T15:20:03.545Z,1018.66
2018-02-08T15:25:03.039Z,1018.7
2018-02-08T15:30:03.542Z,1018.62
2018-02-08T15:35:02.937Z,1018.6
2018-02-08T15:40:03.435Z,1018.66
2018-02-08T15:45:03.276Z,1018.63
2018-02-08T15:50:02.797Z,1018.62
2018-02-08T15:55:03.349Z,1018.62
2018-02-08T16:00:02.826Z,1018.67
2018-02-08T16:05:03.276Z,1018.65
2018-02-08T16:10:02.769Z,1018.58
2018-02-08T16:15:03.244Z,1018.57
2018-02-08T16:20:02.776Z,1018.59
2018-02-08T16:25:03.233Z,1018.56
2018-02-08T16:30:02.773Z,1018.49
2018-02-08T16:35:03.160Z,1018.48
2018-02-08T16:40:03.776Z,1018.47
2018-02-08T16:45:03.236Z,1018.43
2018-02-08T16:50:02.779Z,1018.5
2018-02-08T16:55:03.321Z,1018.45
2018-02-08T17:00:02.789Z,1018.55
2018-02-08T17:05:03.222Z,1018.6
2018-02-08T17:10:02.721Z,1018.62
2018-02-08T17:15:03.184Z,1018.62
2018-02-08T17:20:02.697Z,1018.58
2018-02-08T17:25:03.157Z,1018.55
2018-02-08T17:30:03.678Z,1018.53
2018-02-08T17:35:03.148Z,1018.49
2018-02-08T17:40:03.817Z,1018.47
2018-02-08T17:45:02.988Z,1018.49
2018-02-08T17:50:03.547Z,1018.5
2018-02-08T17:55:02.953Z,1018.51
2018-02-08T18:00:03.364Z,1018.49
2018-02-08T18:05:02.896Z,1018.51
2018-02-08T18:10:03.430Z,1018.52
2018-02-08T18:15:02.861Z,1018.54
2018-02-08T18:20:03.385Z,1018.53
2018-02-08T18:25:02.781Z,1018.47
2018-02-08T18:30:03.285Z,1018.5
2018-02-08T18:35:02.827Z,1018.5
2018-02-08T18:40:03.313Z,1018.51
2018-02-08T18:45:02.976Z,1018.51
2018-02-08T18:50:03.555Z,1018.5
2018-02-08T18:55:02.988Z,1018.46
2018-02-08T19:00:03.452Z,1018.44
2018-02-08T19:05:02.882Z,1018.46
2018-02-08T19:10:03.493Z,1018.44
2018-02-08T19:15:02.871Z,1018.47
2018-02-08T19:20:03.377Z,1018.47
2018-02-08T19:25:02.898Z,1018.44
2018-02-08T19:30:03.343Z,1018.36
2018-02-08T19:35:02.765Z,1018.43
2018-02-08T19:40:03.282Z,1018.41
2018-02-08T19:45:03.070Z,1018.42
2018-02-08T19:50:03.543Z,1018.43
2018-02-08T19:55:03.001Z,1018.32
2018-02-08T20:00:03.498Z,1018.3
2018-02-08T20:05:03.070Z,1018.17
2018-02-08T20:10:03.801Z,1018.22
2018-02-08T20:15:03.332Z,1018.25
2018-02-08T20:20:02.730Z,1018.26
2018-02-08T20:25:03.447Z,1018.16
2018-02-08T20:30:03.152Z,1018.09
2018-02-08T20:35:02.724Z,1018.05
2018-02-08T20:40:03.284Z,1018.05
2018-02-08T20:45:02.735Z,1018.03
2018-02-08T20:50:03.222Z,1017.99
2018-02-08T20:55:03.657Z,1017.93
2018-02-08T21:00:03.244Z,1017.95
2018-02-08T21:05:02.747Z,1017.92
2018-02-08T21:10:03.371Z,1017.95
2018-02-08T21:15:02.970Z,1017.89
2018-02-08T21:20:03.622Z,1017.78
2018-02-08T21:25:03.042Z,1017.82
2018-02-08T21:30:03.675Z,1017.79
2018-02-08T21:35:03.134Z,1017.71
2018-02-08T21:40:02.691Z,1017.68
2018-02-08T21:45:03.179Z,1017.64
2018-02-08T21:50:02.728Z,1017.55
2018-02-08T21:55:03.185Z,1017.52
2018-02-08T22:00:02.690Z,1017.51
2018-02-08T22:05:03.213Z,1017.45
2018-02-08T22:10:02.727Z,1017.49
2018-02-08T22:15:03.238Z,1017.47
2018-02-08T22:20:03.674Z,1017.43
2018-02-08T22:25:03.289Z,1017.39
2018-02-08T22:30:02.695Z,1017.37
2018-02-08T22:35:03.368Z,1017.31
2018-02-08T22:40:02.885Z,1017.23
2018-02-08T22:45:03.371Z,1017.27
2018-02-08T22:50:02.848Z,1017.19
2018-02-08T22:55:03.434Z,1017.13
2018-02-08T23:00:02.998Z,1017.09
2018-02-08T23:05:02.847Z,1017.12
2018-02-08T23:10:03.466Z,1017.13
2018-02-08T23:15:02.910Z,1017.18
2018-02-08T23:20:03.565Z,1017.12
2018-02-08T23:25:03.015Z,1017.09
2018-02-08T23:30:03.715Z,1017.04
2018-02-08T23:35:03.266Z,1017.06
2018-02-08T23:40:02.970Z,1017.07
2018-02-08T23:45:03.473Z,1016.98
2018-02-08T23:50:02.897Z,1016.95
2018-02-08T23:55:03.355Z,1016.93
